Time;durP1;ratioP1;P1;durP2;ratioP2;P2;SDS_P1;SDS_P2;PMS_P1;PMS_P2;Temp;Humidity;BMP_temperature;BMP_pressure;BME280_temperature;BME280_humidity;BME280_pressure;Samples;Min_cycle;Max_cycle;Signal;HPM_P1;HPM_P2
2023/01/27 00:00:13;;;;;;;0.17;0.17;;;7.30;99.90;;;;;;5052494;28;20032;-78
2023/01/27 00:02:40;;;;;;;1.23;0.80;;;7.40;99.90;;;;;;5052398;28;20094;-78
2023/01/27 00:05:08;;;;;;;0.10;0.10;;;7.40;99.90;;;;;;5051697;28;20541;-78
2023/01/27 00:07:35;;;;;;;0.25;0.25;;;7.40;99.90;;;;;;5056160;28;20025;-78
2023/01/27 00:10:00;;;;;;;0.10;0.10;;;7.50;99.90;;;;;;5056197;28;20497;-78
2023/01/27 00:15:12;;;;;;;4.90;0.85;;;7.50;99.90;;;;;;5058028;28;20025;-78
2023/01/27 00:17:39;;;;;;;11.20;2.20;;;7.40;99.90;;;;;;5058378;28;20036;-78
2023/01/27 00:20:05;;;;;;;0.10;0.10;;;7.40;99.90;;;;;;5040536;28;20028;-78
2023/01/27 00:25:16;;;;;;;0.57;0.57;;;7.60;99.90;;;;;;5058000;28;20481;-78
2023/01/27 00:27:41;;;;;;;0.75;0.47;;;7.60;99.90;;;;;;5057857;28;20025;-78
2023/01/27 00:30:09;;;;;;;1.42;0.45;;;7.40;99.90;;;;;;5057662;28;20102;-77
2023/01/27 00:35:19;;;;;;;1.63;0.60;;;7.30;99.90;;;;;;5057405;28;20021;-78
2023/01/27 00:37:45;;;;;;;0.00;0.00;;;7.30;99.90;;;;;;5057508;28;20039;-78
2023/01/27 00:40:13;;;;;;;0.00;0.00;;;7.30;99.90;;;;;;5056607;28;20033;-78
2023/01/27 00:42:40;;;;;;;0.75;0.75;;;7.30;99.90;;;;;;5056168;28;20040;-78
2023/01/27 00:47:51;;;;;;;0.00;0.00;;;7.20;99.90;;;;;;5054588;28;20036;-78
2023/01/27 00:50:18;;;;;;;0.35;0.35;;;7.20;99.90;;;;;;5054616;28;20029;-78
2023/01/27 00:52:45;;;;;;;0.32;0.32;;;7.00;99.90;;;;;;5054283;28;20078;-78
2023/01/27 00:55:14;;;;;;;3.13;2.65;;;6.90;99.90;;;;;;5055641;28;20362;-77
2023/01/27 00:57:40;;;;;;;0.40;0.40;;;7.10;99.90;;;;;;5055374;28;20033;-78
2023/01/27 01:00:08;;;;;;;0.45;0.22;;;7.30;99.90;;;;;;5054338;28;20120;-78
2023/01/27 01:02:34;;;;;;;10.50;1.08;;;7.20;99.90;;;;;;5054064;28;20393;-78
2023/01/27 01:05:00;;;;;;;0.38;0.38;;;7.10;99.90;;;;;;5054071;28;20033;-78
2023/01/27 01:07:28;;;;;;;0.00;0.00;;;7.20;99.90;;;;;;5054068;28;20021;-78
2023/01/27 01:09:53;;;;;;;2.63;2.42;;;7.00;99.90;;;;;;5053935;28;20039;-78
2023/01/27 01:12:20;;;;;;;0.10;0.10;;;7.00;99.90;;;;;;5053819;28;20017;-78
2023/01/27 01:14:49;;;;;;;1.63;0.63;;;7.10;99.90;;;;;;5054050;28;20056;-78
2023/01/27 01:17:14;;;;;;;0.75;0.75;;;7.10;99.90;;;;;;5053317;28;20440;-78
2023/01/27 01:19:40;;;;;;;0.32;0.32;;;7.10;99.90;;;;;;5053598;28;20041;-78
2023/01/27 01:22:06;;;;;;;0.10;0.10;;;7.00;99.90;;;;;;5053621;28;20032;-78
2023/01/27 01:24:32;;;;;;;0.00;0.00;;;7.00;99.90;;;;;;5053907;28;20538;-78
2023/01/27 01:26:59;;;;;;;0.10;0.10;;;7.10;99.90;;;;;;5053537;28;20025;-78
2023/01/27 01:29:24;;;;;;;1.55;0.50;;;7.10;99.90;;;;;;5053696;28;20082;-78
2023/01/27 01:31:52;;;;;;;0.10;0.10;;;7.10;99.90;;;;;;5054190;28;20024;-78
2023/01/27 01:34:18;;;;;;;0.10;0.10;;;7.00;99.90;;;;;;5054803;28;20111;-78
2023/01/27 01:36:44;;;;;;;0.10;0.10;;;6.90;99.90;;;;;;5054517;28;20170;-78
2023/01/27 01:39:10;;;;;;;1.75;1.17;;;7.00;99.90;;;;;;5055025;28;20052;-78
2023/01/27 01:41:35;;;;;;;0.10;0.10;;;7.00;99.90;;;;;;5053191;28;20025;-78
2023/01/27 01:44:22;;;;;;;0.10;0.10;;;7.10;99.90;;;;;;5054666;28;20104;-78
2023/01/27 01:46:48;;;;;;;0.13;0.13;;;7.30;99.90;;;;;;5054538;28;20472;-77
2023/01/27 01:49:17;;;;;;;1.55;0.57;;;7.30;99.90;;;;;;5053020;28;20040;-77
2023/01/27 01:51:54;;;;;;;0.10;0.10;;;7.00;99.90;;;;;;5051448;28;20019;-78
2023/01/27 01:54:21;;;;;;;0.10;0.10;;;7.10;99.90;;;;;;5054635;28;20469;-77
2023/01/27 01:57:00;;;;;;;0.20;0.20;;;7.10;99.90;;;;;;5054476;28;20072;-78
2023/01/27 01:59:39;;;;;;;0.10;0.10;;;7.00;99.90;;;;;;5037536;28;20033;-78
2023/01/27 02:02:09;;;;;;;0.10;0.10;;;7.00;99.90;;;;;;5053112;28;20033;-78
2023/01/27 02:04:45;;;;;;;0.40;0.40;;;7.00;99.90;;;;;;5052722;28;20045;-78
2023/01/27 02:07:18;;;;;;;0.70;0.60;;;6.90;99.90;;;;;;5052865;28;20025;-78
2023/01/27 02:09:44;;;;;;;0.30;0.30;;;6.90;99.90;;;;;;5054160;28;20029;-77
2023/01/27 02:12:10;;;;;;;2.40;1.17;;;6.80;99.90;;;;;;5052776;28;20043;-78
2023/01/27 02:14:37;;;;;;;0.38;0.30;;;6.60;99.90;;;;;;5054249;28;20119;-78
2023/01/27 02:17:04;;;;;;;0.05;0.05;;;6.70;99.90;;;;;;5036559;28;20036;-78
2023/01/27 02:20:04;;;;;;;3.33;0.68;;;6.70;99.90;;;;;;5053608;28;20069;-78
2023/01/27 02:22:45;;;;;;;0.00;0.00;;;6.60;99.90;;;;;;5041848;28;20115;-78
2023/01/27 02:25:34;;;;;;;3.85;0.63;;;6.50;99.90;;;;;;5052651;28;20035;-78
2023/01/27 02:28:05;;;;;;;1.15;1.05;;;6.50;99.90;;;;;;5042877;28;20037;-78
2023/01/27 02:30:31;;;;;;;0.00;0.00;;;6.50;99.90;;;;;;5051579;28;20017;-77
2023/01/27 02:32:57;;;;;;;4.05;0.75;;;6.40;99.90;;;;;;5053451;28;20025;-77
2023/01/27 02:35:49;;;;;;;0.10;0.10;;;6.40;99.90;;;;;;5035943;28;20086;-78
2023/01/27 02:38:17;;;;;;;4.28;0.95;;;6.50;99.90;;;;;;5053685;28;20044;-78
2023/01/27 02:40:45;;;;;;;0.10;0.10;;;6.50;99.90;;;;;;5052188;28;20536;-78
2023/01/27 02:43:11;;;;;;;0.10;0.10;;;6.50;99.90;;;;;;5052143;28;20040;-78
2023/01/27 02:45:37;;;;;;;0.40;0.40;;;6.50;99.90;;;;;;5052341;28;20059;-78
2023/01/27 02:48:03;;;;;;;1.50;0.35;;;6.50;99.90;;;;;;5054773;28;20095;-78
2023/01/27 02:50:29;;;;;;;1.40;0.20;;;6.50;99.90;;;;;;5054134;28;20090;-77
2023/01/27 02:52:54;;;;;;;0.10;0.10;;;6.30;99.90;;;;;;5055555;28;20369;-78
2023/01/27 02:55:21;;;;;;;0.10;0.10;;;6.30;99.90;;;;;;5053691;28;20089;-76
2023/01/27 02:57:47;;;;;;;0.00;0.00;;;6.30;99.90;;;;;;5053713;28;20477;-78
2023/01/27 03:00:34;;;;;;;0.10;0.10;;;6.30;99.90;;;;;;5054578;28;20076;-77
2023/01/27 03:02:59;;;;;;;6.68;3.38;;;6.30;99.90;;;;;;5051730;28;20025;-77
2023/01/27 03:05:26;;;;;;;0.43;0.30;;;6.30;99.90;;;;;;5053108;28;20397;-78
2023/01/27 03:07:52;;;;;;;0.38;0.38;;;6.30;99.90;;;;;;5051941;28;20060;-77
2023/01/27 03:10:18;;;;;;;0.10;0.10;;;6.40;99.90;;;;;;5051883;28;20507;-75
2023/01/27 03:12:44;;;;;;;2.85;0.90;;;6.50;99.90;;;;;;5035156;28;20060;-78
2023/01/27 03:18:14;;;;;;;0.40;0.35;;;6.30;99.90;;;;;;5052976;28;20112;-75
2023/01/27 03:20:43;;;;;;;0.03;0.03;;;6.30;99.90;;;;;;5034919;28;20382;-77
2023/01/27 03:23:10;;;;;;;6.35;2.15;;;6.30;99.90;;;;;;5051658;28;20085;-77
2023/01/27 03:25:41;;;;;;;3.20;0.63;;;6.40;99.90;;;;;;5051418;28;20112;-77
2023/01/27 03:28:08;;;;;;;0.10;0.10;;;6.30;99.90;;;;;;5051380;28;20028;-77
2023/01/27 03:30:50;;;;;;;0.05;0.05;;;6.30;99.90;;;;;;5051099;28;20028;-76
2023/01/27 03:33:21;;;;;;;0.00;0.00;;;6.30;99.90;;;;;;5051626;28;20074;-77
2023/01/27 03:46:58;;;;;;;1.45;0.90;;;6.10;99.90;;;;;;5052498;28;20039;-77
2023/01/27 03:49:24;;;;;;;0.75;0.75;;;6.10;99.90;;;;;;5052656;28;20029;-77
2023/01/27 03:51:50;;;;;;;0.15;0.15;;;6.10;99.90;;;;;;5051072;28;20024;-78
2023/01/27 03:54:15;;;;;;;1.52;1.05;;;6.00;99.90;;;;;;5052533;28;20033;-76
2023/01/27 03:56:41;;;;;;;9.65;0.25;;;6.00;99.90;;;;;;5052633;28;20051;-76
2023/01/27 03:59:07;;;;;;;1.85;1.27;;;6.00;99.90;;;;;;5052326;28;20416;-78
2023/01/27 04:01:33;;;;;;;0.90;0.43;;;6.00;99.90;;;;;;5052163;28;20076;-78
2023/01/27 04:06:57;;;;;;;0.63;0.55;;;6.20;99.90;;;;;;5038393;28;20489;-78
2023/01/27 04:09:28;;;;;;;1.90;1.00;;;6.20;99.90;;;;;;5052121;28;20539;-77
2023/01/27 04:11:58;;;;;;;0.10;0.10;;;6.20;99.90;;;;;;5052403;28;20025;-78
2023/01/27 04:14:29;;;;;;;0.00;0.00;;;6.20;99.90;;;;;;5052231;28;20052;-78
2023/01/27 04:17:09;;;;;;;0.40;0.30;;;6.20;99.90;;;;;;5038393;28;20051;-78
2023/01/27 04:19:35;;;;;;;0.20;0.20;;;6.10;99.90;;;;;;5051554;28;20037;-77
2023/01/27 04:22:02;;;;;;;2.28;1.77;;;6.10;99.90;;;;;;5052096;28;20112;-78
2023/01/27 04:24:28;;;;;;;0.93;0.55;;;6.00;99.90;;;;;;5052213;28;20041;-77
2023/01/27 04:26:56;;;;;;;1.33;1.08;;;6.10;99.90;;;;;;5052002;28;20108;-78
2023/01/27 04:29:24;;;;;;;0.20;0.20;;;6.00;99.90;;;;;;5034249;28;20056;-78
2023/01/27 04:31:51;;;;;;;2.40;0.95;;;6.00;99.90;;;;;;5050665;28;20017;-77
2023/01/27 04:34:17;;;;;;;1.77;0.57;;;6.00;99.90;;;;;;5052092;28;20033;-78
2023/01/27 04:36:43;;;;;;;1.33;1.13;;;6.10;99.90;;;;;;5050389;28;20041;-78
2023/01/27 04:39:09;;;;;;;1.67;1.17;;;6.20;99.90;;;;;;5050764;28;20167;-77
2023/01/27 04:41:36;;;;;;;0.82;0.63;;;6.10;99.90;;;;;;5052039;28;20029;-78
2023/01/27 04:44:03;;;;;;;5.20;3.13;;;5.90;99.90;;;;;;5051484;28;20126;-78
2023/01/27 04:46:29;;;;;;;8.25;2.00;;;5.70;99.90;;;;;;5051883;28;20503;-78
2023/01/27 04:48:55;;;;;;;0.38;0.38;;;5.60;99.90;;;;;;5051938;28;20017;-78
2023/01/27 04:51:21;;;;;;;0.22;0.22;;;5.50;99.90;;;;;;5051866;28;20029;-78
2023/01/27 04:53:47;;;;;;;0.95;0.70;;;5.60;99.90;;;;;;5054926;28;20032;-77
2023/01/27 04:56:35;;;;;;;0.52;0.45;;;5.60;99.90;;;;;;5055590;28;20366;-77
2023/01/27 04:59:03;;;;;;;2.08;1.30;;;5.70;99.90;;;;;;5054958;28;20485;-78
2023/01/27 05:01:29;;;;;;;0.30;0.30;;;5.50;99.90;;;;;;5055216;28;20078;-77
2023/01/27 05:03:56;;;;;;;8.75;2.95;;;5.60;99.90;;;;;;5055152;28;20048;-76
2023/01/27 05:06:22;;;;;;;0.63;0.60;;;5.60;99.90;;;;;;5055137;28;20424;-78
2023/01/27 05:08:49;;;;;;;5.47;2.33;;;5.50;99.90;;;;;;5054335;28;20052;-77
2023/01/27 05:11:15;;;;;;;0.70;0.70;;;5.40;99.90;;;;;;5054944;28;20445;-77
2023/01/27 05:13:41;;;;;;;1.60;0.90;;;5.50;99.90;;;;;;5055102;28;20107;-77
2023/01/27 05:16:08;;;;;;;3.92;1.55;;;5.40;99.90;;;;;;5053904;28;20124;-78
2023/01/27 05:18:35;;;;;;;1.77;1.67;;;5.40;99.90;;;;;;5055081;28;20025;-78
2023/01/27 05:21:01;;;;;;;5.43;1.92;;;5.30;99.90;;;;;;5055065;28;20457;-77
2023/01/27 05:23:36;;;;;;;0.43;0.43;;;5.30;99.90;;;;;;5055076;28;20485;-78
2023/01/27 05:26:08;;;;;;;0.38;0.17;;;5.40;99.90;;;;;;5053415;28;20028;-77
2023/01/27 05:28:36;;;;;;;0.50;0.50;;;5.50;99.90;;;;;;5054751;28;20078;-77
2023/01/27 05:31:13;;;;;;;1.77;1.45;;;5.40;99.90;;;;;;5054859;28;20021;-78
2023/01/27 05:33:40;;;;;;;3.50;1.63;;;5.50;99.90;;;;;;5054736;28;20029;-78
2023/01/27 05:36:08;;;;;;;0.85;0.85;;;5.30;99.90;;;;;;5054668;28;20060;-78
2023/01/27 05:38:35;;;;;;;1.33;0.85;;;5.30;99.90;;;;;;5054803;28;20504;-77
2023/01/27 05:41:03;;;;;;;0.52;0.45;;;5.40;99.90;;;;;;5054389;28;20078;-78
2023/01/27 05:43:30;;;;;;;0.30;0.30;;;5.50;99.90;;;;;;5054429;28;20041;-78
2023/01/27 05:46:14;;;;;;;2.40;1.17;;;5.50;99.90;;;;;;5054863;28;20020;-77
2023/01/27 05:48:42;;;;;;;6.93;2.20;;;5.50;99.90;;;;;;5053076;28;20024;-78
2023/01/27 05:51:08;;;;;;;1.52;0.80;;;5.50;99.90;;;;;;5054578;28;20542;-78
2023/01/27 05:53:35;;;;;;;3.05;1.58;;;5.60;99.90;;;;;;5053057;28;20461;-75
2023/01/27 05:56:02;;;;;;;7.07;2.45;;;5.70;99.90;;;;;;5054267;28;20024;-78
2023/01/27 05:58:28;;;;;;;0.30;0.30;;;5.70;99.90;;;;;;5054500;28;20052;-78
2023/01/27 06:00:54;;;;;;;4.30;3.20;;;5.70;99.90;;;;;;5052964;28;20021;-78
2023/01/27 06:03:20;;;;;;;9.65;1.85;;;5.60;99.90;;;;;;5053856;28;20047;-79
2023/01/27 06:05:54;;;;;;;8.82;4.93;;;5.50;99.90;;;;;;5054337;28;20025;-78
2023/01/27 06:08:24;;;;;;;3.65;2.15;;;5.40;99.90;;;;;;5052949;28;20488;-78
2023/01/27 06:10:52;;;;;;;1.73;1.63;;;5.40;99.90;;;;;;5054040;28;20115;-78
2023/01/27 06:13:20;;;;;;;5.68;1.80;;;5.40;99.90;;;;;;5052823;28;20025;-78
2023/01/27 06:15:46;;;;;;;0.68;0.50;;;5.50;99.90;;;;;;5052983;28;20056;-78
2023/01/27 06:18:14;;;;;;;3.60;2.47;;;5.40;99.90;;;;;;5053722;28;20029;-78
2023/01/27 06:20:40;;;;;;;25.23;3.13;;;5.60;99.90;;;;;;5052691;28;20482;-78
2023/01/27 06:23:11;;;;;;;2.38;0.77;;;5.50;99.90;;;;;;5053713;28;20025;-78
2023/01/27 06:25:42;;;;;;;1.33;1.23;;;5.50;99.90;;;;;;5053408;28;20072;-78
2023/01/27 06:28:08;;;;;;;1.00;1.00;;;5.30;99.90;;;;;;5053947;28;20033;-78
2023/01/27 06:30:35;;;;;;;0.30;0.30;;;5.30;99.90;;;;;;5052431;28;20156;-77
2023/01/27 06:33:01;;;;;;;1.67;1.17;;;5.30;99.90;;;;;;5053681;28;20043;-78
2023/01/27 06:35:28;;;;;;;2.00;1.25;;;5.40;99.90;;;;;;5053590;28;20027;-78
2023/01/27 06:37:56;;;;;;;0.25;0.25;;;5.40;99.90;;;;;;5053307;28;20025;-79
2023/01/27 06:40:22;;;;;;;1.30;0.70;;;5.50;99.90;;;;;;5053181;28;20027;-79
2023/01/27 06:42:47;;;;;;;1.02;1.02;;;5.50;99.90;;;;;;5052153;28;20120;-79
2023/01/27 06:45:13;;;;;;;9.82;4.47;;;5.60;99.90;;;;;;5053388;28;20033;-78
2023/01/27 06:47:39;;;;;;;1.65;1.55;;;5.60;99.90;;;;;;5053486;28;20078;-77
2023/01/27 06:50:07;;;;;;;2.45;1.83;;;5.60;99.90;;;;;;5053410;28;20029;-78
2023/01/27 06:52:33;;;;;;;4.32;1.85;;;5.40;99.90;;;;;;5052015;28;20025;-77
2023/01/27 06:54:59;;;;;;;0.13;0.13;;;5.50;99.90;;;;;;5051863;28;20123;-79
2023/01/27 06:57:24;;;;;;;14.20;2.50;;;5.30;99.90;;;;;;5053550;28;20021;-79
2023/01/27 06:59:50;;;;;;;2.00;1.75;;;5.50;99.90;;;;;;5051941;28;20028;-78
2023/01/27 07:02:16;;;;;;;3.92;1.23;;;5.60;99.90;;;;;;5054381;28;20025;-78
2023/01/27 07:04:45;;;;;;;0.20;0.20;;;5.50;99.90;;;;;;5052919;28;20037;-80
2023/01/27 07:07:11;;;;;;;2.10;1.45;;;5.50;99.90;;;;;;5053272;28;20470;-80
2023/01/27 07:09:36;;;;;;;7.00;2.88;;;5.50;99.90;;;;;;5052508;28;20119;-78
2023/01/27 07:12:02;;;;;;;1.33;1.30;;;5.50;99.90;;;;;;5042859;28;20029;-78
2023/01/27 07:14:28;;;;;;;1.88;0.95;;;5.60;99.90;;;;;;5043761;28;20040;-77
2023/01/27 07:16:54;;;;;;;15.30;4.25;;;5.50;99.90;;;;;;5046614;28;20025;-79
2023/01/27 07:19:20;;;;;;;0.73;0.52;;;5.50;99.90;;;;;;5046636;28;20029;-79
2023/01/27 07:21:45;;;;;;;1.08;0.98;;;5.40;99.90;;;;;;5047810;28;20059;-79
2023/01/27 07:24:11;;;;;;;0.10;0.10;;;5.50;99.90;;;;;;5048075;28;20063;-77
2023/01/27 07:26:37;;;;;;;2.92;1.10;;;5.60;99.90;;;;;;5054995;28;20022;-79
2023/01/27 07:29:03;;;;;;;0.85;0.82;;;5.80;99.90;;;;;;5056398;28;20052;-79
2023/01/27 07:31:29;;;;;;;3.15;2.58;;;5.70;99.90;;;;;;5049115;28;20051;-77
2023/01/27 07:33:55;;;;;;;1.95;1.27;;;5.70;99.90;;;;;;5047102;28;20051;-78
2023/01/27 07:36:20;;;;;;;0.55;0.55;;;5.80;99.90;;;;;;5047663;28;20037;-79
2023/01/27 07:38:49;;;;;;;1.98;1.85;;;6.00;99.90;;;;;;5054697;28;20114;-79
2023/01/27 07:41:15;;;;;;;4.20;1.85;;;5.90;99.90;;;;;;5055217;28;20078;-80
2023/01/27 07:43:41;;;;;;;1.10;1.10;;;5.80;99.90;;;;;;5055910;28;20065;-76
2023/01/27 07:46:07;;;;;;;9.55;3.35;;;5.70;99.90;;;;;;5050200;28;20025;-80
2023/01/27 07:48:33;;;;;;;6.53;3.35;;;5.70;99.90;;;;;;5048938;28;20025;-82
2023/01/27 07:50:59;;;;;;;2.70;2.25;;;5.50;99.90;;;;;;5055238;28;20703;-79
2023/01/27 07:53:25;;;;;;;2.92;0.90;;;5.50;99.90;;;;;;5054355;28;20028;-80
2023/01/27 07:55:50;;;;;;;3.13;2.00;;;5.70;99.90;;;;;;5053811;28;20087;-77
2023/01/27 07:58:16;;;;;;;2.67;1.63;;;5.70;99.90;;;;;;5035914;28;20098;-78
2023/01/27 08:00:42;;;;;;;7.40;1.95;;;5.70;99.90;;;;;;5047746;28;20167;-80
2023/01/27 08:03:26;;;;;;;4.15;1.20;;;5.70;99.90;;;;;;5046905;28;20108;-78
2023/01/27 08:05:52;;;;;;;2.17;2.00;;;5.50;99.90;;;;;;5063634;28;20025;-79
2023/01/27 08:08:18;;;;;;;0.90;0.57;;;5.60;99.90;;;;;;5055988;28;20116;-78
2023/01/27 08:10:48;;;;;;;1.20;1.10;;;5.70;99.90;;;;;;5053221;28;20055;-81
2023/01/27 08:13:14;;;;;;;3.22;2.83;;;5.90;99.90;;;;;;5044775;28;20037;-80
2023/01/27 08:15:40;;;;;;;0.10;0.10;;;5.90;99.90;;;;;;5052211;28;20013;-78
2023/01/27 08:18:06;;;;;;;2.75;0.50;;;5.80;99.90;;;;;;5054335;28;20027;-79
2023/01/27 08:20:33;;;;;;;0.30;0.30;;;6.00;99.90;;;;;;5056983;28;20066;-79
2023/01/27 08:22:58;;;;;;;2.97;1.73;;;6.00;99.90;;;;;;5050415;28;20406;-78
2023/01/27 08:25:24;;;;;;;1.50;0.68;;;5.80;99.90;;;;;;5061816;28;20020;-80
2023/01/27 08:27:56;;;;;;;2.17;1.98;;;5.90;99.90;;;;;;5063107;28;20017;-81
2023/01/27 08:30:22;;;;;;;13.15;1.35;;;6.10;99.90;;;;;;5066648;28;20025;-78
2023/01/27 08:32:48;;;;;;;3.75;2.25;;;6.10;99.90;;;;;;5061538;28;20025;-80
2023/01/27 08:35:14;;;;;;;0.25;0.25;;;5.80;99.90;;;;;;5053506;28;20031;-80
2023/01/27 08:37:39;;;;;;;0.32;0.32;;;5.80;99.90;;;;;;5047822;28;20660;-80
2023/01/27 08:40:06;;;;;;;0.47;0.47;;;5.90;99.90;;;;;;5056729;28;20093;-81
2023/01/27 08:42:31;;;;;;;0.20;0.20;;;5.90;99.90;;;;;;5052200;28;20036;-76
2023/01/27 08:44:59;;;;;;;2.92;1.55;;;6.00;99.90;;;;;;5057986;28;20033;-79
2023/01/27 08:47:25;;;;;;;21.52;1.92;;;6.20;99.90;;;;;;5052682;28;20036;-78
2023/01/27 08:49:53;;;;;;;0.60;0.60;;;6.50;99.90;;;;;;5056351;28;20024;-78
2023/01/27 08:52:18;;;;;;;0.88;0.85;;;6.60;99.90;;;;;;5047269;28;20231;-79
2023/01/27 08:54:44;;;;;;;0.13;0.13;;;6.50;99.90;;;;;;5048795;28;20096;-78
2023/01/27 08:57:10;;;;;;;1.67;1.50;;;6.20;99.90;;;;;;5052818;28;20123;-79
2023/01/27 08:59:36;;;;;;;0.55;0.55;;;6.30;99.90;;;;;;5054742;28;20428;-77
2023/01/27 09:02:02;;;;;;;1.30;1.10;;;6.30;99.90;;;;;;5052770;28;20060;-79
2023/01/27 09:04:29;;;;;;;3.10;0.90;;;6.20;99.90;;;;;;5062522;28;20081;-77
2023/01/27 09:06:55;;;;;;;0.65;0.65;;;6.20;99.90;;;;;;5064237;28;20028;-78
2023/01/27 09:09:21;;;;;;;1.75;1.20;;;6.20;99.90;;;;;;5063376;28;20112;-78
2023/01/27 09:11:47;;;;;;;2.22;1.65;;;6.20;99.90;;;;;;5053596;28;20095;-75
2023/01/27 09:14:13;;;;;;;7.07;2.70;;;6.10;99.90;;;;;;5042238;28;20033;-77
2023/01/27 09:16:39;;;;;;;0.85;0.70;;;6.00;99.90;;;;;;5060928;28;20029;-78
2023/01/27 09:19:04;;;;;;;0.00;0.00;;;6.00;99.90;;;;;;5063716;28;20017;-78
2023/01/27 09:21:30;;;;;;;1.55;0.40;;;6.00;99.90;;;;;;5057725;28;20134;-78
2023/01/27 09:23:57;;;;;;;0.68;0.65;;;6.10;99.90;;;;;;5052924;28;20033;-76
2023/01/27 09:26:23;;;;;;;2.25;1.85;;;6.00;99.90;;;;;;5064868;28;20085;-78
2023/01/27 09:28:48;;;;;;;0.57;0.57;;;6.00;99.90;;;;;;5062492;28;20036;-76
2023/01/27 09:31:14;;;;;;;2.45;1.65;;;6.00;99.90;;;;;;5062078;28;20052;-78
2023/01/27 09:33:40;;;;;;;0.70;0.70;;;6.00;99.90;;;;;;5055807;28;20021;-78
2023/01/27 09:36:10;;;;;;;1.50;1.23;;;6.00;99.90;;;;;;5051469;28;20032;-76
2023/01/27 09:38:41;;;;;;;0.10;0.10;;;6.00;99.90;;;;;;5063095;28;20041;-77
2023/01/27 09:41:30;;;;;;;6.30;0.93;;;6.10;99.90;;;;;;5043993;28;20023;-77
2023/01/27 09:44:02;;;;;;;1.23;0.60;;;6.20;99.90;;;;;;5055638;28;20311;-75
2023/01/27 09:47:03;;;;;;;0.70;0.65;;;6.20;99.90;;;;;;5055389;28;20029;-78
2023/01/27 09:50:06;;;;;;;0.75;0.68;;;6.10;99.90;;;;;;5047198;28;20108;-78
2023/01/27 09:53:12;;;;;;;0.20;0.20;;;6.20;99.90;;;;;;5052604;28;20078;-78
2023/01/27 09:55:44;;;;;;;0.63;0.63;;;6.30;99.90;;;;;;5053582;28;20104;-78
2023/01/27 09:58:33;;;;;;;24.13;2.13;;;6.40;99.90;;;;;;5054210;28;20091;-78
2023/01/27 10:01:05;;;;;;;3.63;1.40;;;6.30;99.90;;;;;;5053098;28;20041;-78
2023/01/27 10:03:52;;;;;;;0.90;0.60;;;6.40;99.90;;;;;;5053937;28;20044;-78
2023/01/27 10:06:44;;;;;;;0.13;0.13;;;6.40;99.90;;;;;;5053965;28;20035;-78
2023/01/27 10:09:16;;;;;;;1.77;1.00;;;6.30;99.90;;;;;;5036256;28;20048;-79
2023/01/27 10:12:01;;;;;;;2.83;0.88;;;6.20;99.90;;;;;;5053818;28;20021;-79
2023/01/27 10:14:44;;;;;;;0.20;0.20;;;6.10;99.90;;;;;;5036112;28;20116;-79
2023/01/27 10:17:30;;;;;;;1.35;0.75;;;6.30;99.90;;;;;;5044184;28;20052;-80
2023/01/27 10:19:58;;;;;;;0.68;0.63;;;6.20;99.90;;;;;;5053663;28;20044;-76
2023/01/27 10:22:42;;;;;;;0.00;0.00;;;6.30;99.90;;;;;;5052672;28;20487;-78
2023/01/27 10:25:29;;;;;;;0.28;0.28;;;6.20;99.90;;;;;;5036198;28;20065;-78
2023/01/27 10:28:06;;;;;;;0.10;0.10;;;6.10;99.90;;;;;;5032306;28;20041;-77
2023/01/27 10:30:36;;;;;;;0.00;0.00;;;6.30;99.90;;;;;;5039742;28;20090;-78
2023/01/27 10:33:28;;;;;;;0.20;0.13;;;6.30;99.90;;;;;;5053938;28;20037;-79
2023/01/27 10:36:27;;;;;;;0.10;0.10;;;6.30;99.90;;;;;;5052560;28;20029;-79
2023/01/27 10:39:07;;;;;;;0.20;0.20;;;6.30;99.90;;;;;;5054030;28;20033;-79
2023/01/27 10:41:50;;;;;;;0.10;0.10;;;6.50;99.90;;;;;;5054596;28;20033;-79
2023/01/27 10:44:25;;;;;;;0.20;0.20;;;6.50;99.90;;;;;;5054148;28;20041;-79
2023/01/27 10:47:07;;;;;;;1.85;0.75;;;6.50;99.90;;;;;;5053245;28;20072;-79
2023/01/27 10:50:04;;;;;;;1.65;0.90;;;6.20;99.90;;;;;;5052304;28;20108;-77
2023/01/27 10:52:52;;;;;;;0.10;0.10;;;6.30;99.90;;;;;;5052196;28;20041;-77
2023/01/27 10:55:21;;;;;;;0.30;0.30;;;6.40;99.90;;;;;;5053380;28;20024;-77
2023/01/27 10:57:56;;;;;;;2.13;0.73;;;6.50;99.90;;;;;;5034247;28;20058;-77
2023/01/27 11:00:42;;;;;;;1.45;0.65;;;6.60;99.90;;;;;;5038765;28;20036;-79
2023/01/27 11:03:33;;;;;;;0.68;0.65;;;6.60;99.90;;;;;;5047361;28;20072;-80
2023/01/27 11:06:05;;;;;;;2.97;1.70;;;6.70;99.90;;;;;;5044701;28;20366;-75
2023/01/27 11:08:37;;;;;;;0.30;0.30;;;6.60;99.90;;;;;;5055909;28;20033;-79
2023/01/27 11:14:05;;;;;;;0.00;0.00;;;6.60;99.90;;;;;;5041600;28;20025;-77
2023/01/27 11:16:37;;;;;;;0.10;0.10;;;6.70;99.90;;;;;;5052398;28;20393;-77
2023/01/27 11:19:36;;;;;;;0.25;0.25;;;6.70;99.90;;;;;;5050835;28;20029;-77
2023/01/27 11:22:03;;;;;;;1.63;0.85;;;6.80;99.90;;;;;;5045362;28;20033;-78
2023/01/27 11:24:44;;;;;;;0.85;0.50;;;6.50;99.90;;;;;;5047799;28;20064;-77
2023/01/27 11:27:45;;;;;;;1.17;0.75;;;6.50;99.90;;;;;;5057320;28;20030;-78
2023/01/27 11:30:21;;;;;;;0.10;0.10;;;6.50;99.90;;;;;;5047604;28;20124;-78
2023/01/27 11:32:53;;;;;;;0.32;0.32;;;6.60;99.90;;;;;;5052473;28;20039;-78
2023/01/27 11:35:19;;;;;;;0.75;0.63;;;6.60;99.90;;;;;;5046436;28;20052;-78
2023/01/27 11:37:49;;;;;;;0.10;0.10;;;6.40;99.90;;;;;;5051552;28;20037;-78
2023/01/27 11:40:37;;;;;;;0.55;0.55;;;6.40;99.90;;;;;;5050637;28;20132;-78
2023/01/27 11:43:03;;;;;;;0.40;0.40;;;6.50;99.90;;;;;;5048007;28;20120;-77
2023/01/27 11:45:34;;;;;;;0.35;0.35;;;6.50;99.90;;;;;;5052925;28;20524;-78
2023/01/27 11:48:04;;;;;;;0.05;0.05;;;6.50;99.90;;;;;;5054291;28;20047;-79
2023/01/27 11:50:33;;;;;;;0.10;0.10;;;6.60;99.90;;;;;;5043852;28;20095;-78
2023/01/27 11:53:24;;;;;;;0.80;0.45;;;6.50;99.90;;;;;;5051071;28;20094;-78
2023/01/27 11:56:00;;;;;;;0.00;0.00;;;6.40;99.90;;;;;;5052873;28;20025;-78
2023/01/27 11:58:35;;;;;;;0.20;0.20;;;6.60;99.90;;;;;;5049338;28;20029;-78
2023/01/27 12:01:08;;;;;;;0.63;0.63;;;6.70;99.90;;;;;;5047180;28;20020;-79
2023/01/27 12:04:06;;;;;;;0.55;0.55;;;6.40;99.90;;;;;;5052891;28;20035;-79
2023/01/27 12:06:50;;;;;;;0.00;0.00;;;6.40;99.90;;;;;;5056275;28;20032;-77
2023/01/27 12:09:37;;;;;;;0.30;0.30;;;6.30;99.90;;;;;;5056614;28;20029;-79
2023/01/27 12:12:10;;;;;;;2.70;0.88;;;6.40;99.90;;;;;;5044097;28;20055;-78
2023/01/27 12:14:36;;;;;;;1.42;0.90;;;6.20;99.90;;;;;;5057462;28;20044;-80
2023/01/27 12:17:04;;;;;;;2.85;2.65;;;6.30;99.90;;;;;;5057657;28;20100;-80
2023/01/27 12:19:39;;;;;;;0.15;0.15;;;6.30;99.90;;;;;;5056954;28;20079;-78
2023/01/27 12:22:27;;;;;;;0.93;0.85;;;6.40;99.90;;;;;;5043603;28;20074;-80
2023/01/27 12:25:01;;;;;;;0.10;0.10;;;6.40;99.90;;;;;;5060016;28;20067;-80
2023/01/27 12:27:30;;;;;;;0.20;0.20;;;6.50;99.90;;;;;;5060983;28;20025;-81
2023/01/27 12:30:06;;;;;;;0.28;0.28;;;6.40;99.90;;;;;;5060161;28;20039;-80
2023/01/27 12:32:45;;;;;;;0.15;0.15;;;6.40;99.90;;;;;;5058168;28;20029;-81
2023/01/27 12:35:28;;;;;;;0.40;0.28;;;6.50;99.90;;;;;;5058360;28;20112;-80
2023/01/27 12:38:01;;;;;;;0.10;0.10;;;6.30;99.90;;;;;;5057121;28;20029;-80
2023/01/27 12:40:28;;;;;;;1.30;1.20;;;6.40;99.90;;;;;;5056927;28;20502;-80
2023/01/27 12:43:14;;;;;;;0.38;0.15;;;6.40;99.90;;;;;;5056665;28;20028;-80
2023/01/27 12:45:42;;;;;;;1.05;0.95;;;6.30;99.90;;;;;;5056038;28;20025;-80
2023/01/27 12:48:17;;;;;;;1.48;1.38;;;6.30;99.90;;;;;;5057383;28;20114;-81
2023/01/27 12:50:49;;;;;;;1.77;1.48;;;6.10;99.90;;;;;;5057275;28;20036;-80
2023/01/27 12:53:28;;;;;;;0.20;0.20;;;6.10;99.90;;;;;;5057956;28;20036;-81
2023/01/27 12:56:03;;;;;;;0.20;0.20;;;6.10;99.90;;;;;;5056082;28;20021;-81
2023/01/27 12:58:54;;;;;;;1.02;0.95;;;6.30;99.90;;;;;;5055547;28;20068;-80
2023/01/27 13:01:19;;;;;;;1.05;0.82;;;6.20;99.90;;;;;;5050026;28;20179;-81
2023/01/27 13:03:50;;;;;;;1.75;0.68;;;6.10;99.90;;;;;;5046251;28;20170;-75
2023/01/27 13:06:20;;;;;;;0.47;0.43;;;6.00;99.90;;;;;;5055375;28;20028;-80
2023/01/27 13:08:50;;;;;;;1.67;1.08;;;5.90;99.90;;;;;;5055749;28;20520;-81
2023/01/27 13:11:27;;;;;;;0.10;0.10;;;6.00;99.90;;;;;;5054854;28;20111;-80
2023/01/27 13:13:56;;;;;;;0.20;0.20;;;6.30;99.90;;;;;;5054731;28;20096;-80
2023/01/27 13:16:27;;;;;;;0.70;0.70;;;6.20;99.90;;;;;;5055370;28;20037;-79
2023/01/27 13:18:58;;;;;;;1.63;0.98;;;6.20;99.90;;;;;;5055518;28;20025;-80
2023/01/27 13:21:35;;;;;;;0.10;0.10;;;6.10;99.90;;;;;;5055525;28;20036;-80
2023/01/27 13:24:05;;;;;;;0.08;0.08;;;6.20;99.90;;;;;;5054082;28;20482;-80
2023/01/27 13:26:36;;;;;;;0.00;0.00;;;6.30;99.90;;;;;;5054882;28;20127;-80
2023/01/27 13:29:08;;;;;;;0.40;0.40;;;6.30;99.90;;;;;;5055313;28;20150;-80
2023/01/27 13:31:41;;;;;;;0.30;0.30;;;6.20;99.90;;;;;;5053876;28;20044;-80
2023/01/27 13:34:25;;;;;;;0.20;0.20;;;6.20;99.90;;;;;;5055778;28;20090;-80
2023/01/27 13:36:59;;;;;;;0.93;0.60;;;6.20;99.90;;;;;;5055069;28;20433;-80
2023/01/27 13:39:44;;;;;;;0.70;0.55;;;6.20;99.90;;;;;;5055487;28;20048;-79
2023/01/27 13:42:23;;;;;;;0.73;0.73;;;6.30;99.90;;;;;;5055034;28;20029;-79
2023/01/27 13:45:10;;;;;;;0.20;0.20;;;6.00;99.90;;;;;;5055366;28;20086;-79
2023/01/27 13:48:00;;;;;;;0.10;0.10;;;6.10;99.90;;;;;;5042514;28;20033;-81